createdAt,value
2023-03-04T00:02:10.696Z,66.68
2023-03-04T00:04:37.141Z,66.56
2023-03-04T00:07:03.569Z,67.08
2023-03-04T00:09:30.003Z,67.96
2023-03-04T00:11:56.416Z,68.47
2023-03-04T00:14:22.961Z,68.39
2023-03-04T00:16:49.490Z,67.95
2023-03-04T00:19:16.012Z,67.17
2023-03-04T00:21:42.458Z,65.87
2023-03-04T00:24:08.889Z,65.05
2023-03-04T00:26:35.395Z,67.88
2023-03-04T00:29:01.875Z,67.75
2023-03-04T00:31:28.408Z,66.84
2023-03-04T00:33:55.002Z,65.81
2023-03-04T00:36:21.481Z,65.93
2023-03-04T00:38:47.927Z,64.24
2023-03-04T00:41:14.406Z,66.04
2023-03-04T00:43:40.856Z,64.71
2023-03-04T00:46:07.389Z,66.14
2023-03-04T00:48:33.860Z,66.40
2023-03-04T00:51:00.323Z,64.99
2023-03-04T00:53:26.777Z,66.87
2023-03-04T00:55:53.240Z,65.00
2023-03-04T00:58:19.645Z,65.38
2023-03-04T01:00:46.083Z,67.59
2023-03-04T01:03:12.547Z,66.37
2023-03-04T01:05:39.116Z,66.08
2023-03-04T01:08:05.701Z,66.59
2023-03-04T01:10:32.237Z,65.19
2023-03-04T01:12:58.866Z,65.89
2023-03-04T01:15:25.391Z,66.12
2023-03-04T01:17:51.862Z,65.85
2023-03-04T01:20:18.938Z,67.14
2023-03-04T01:22:45.398Z,66.58
2023-03-04T01:25:11.848Z,64.66
2023-03-04T01:27:38.295Z,64.84
2023-03-04T01:30:05.399Z,66.17
2023-03-04T01:32:32.082Z,64.50
2023-03-04T01:34:58.574Z,64.36
2023-03-04T01:37:25.095Z,65.03
2023-03-04T01:39:51.509Z,63.18
2023-03-04T01:42:21.187Z,64.69
2023-03-04T01:44:49.589Z,65.96
2023-03-04T01:47:16.387Z,63.69
2023-03-04T01:49:43.395Z,65.18
2023-03-04T01:52:13.902Z,62.95
2023-03-04T01:54:41.406Z,63.19
2023-03-04T01:57:18.056Z,64.21
2023-03-04T01:59:45.335Z,63.74
2023-03-04T02:02:12.721Z,64.49
2023-03-04T02:04:40.729Z,64.02
2023-03-04T02:07:07.491Z,63.48
2023-03-04T02:09:35.736Z,63.71
2023-03-04T02:12:02.379Z,61.91
2023-03-04T02:14:29.106Z,63.37
2023-03-04T02:16:55.547Z,65.26
2023-03-04T02:19:42.916Z,64.37
2023-03-04T02:22:09.562Z,64.83
2023-03-04T02:24:41.883Z,66.13
2023-03-04T02:27:08.403Z,65.08
2023-03-04T02:29:35.054Z,65.56
2023-03-04T02:32:01.709Z,63.05
2023-03-04T02:34:31.759Z,63.29
2023-03-04T02:36:58.866Z,65.30
2023-03-04T02:39:32.805Z,64.93
2023-03-04T02:42:00.882Z,62.23
2023-03-04T02:44:34.620Z,62.67
2023-03-04T02:47:01.875Z,62.67
2023-03-04T02:49:31.177Z,62.99
2023-03-04T02:52:09.801Z,64.51
2023-03-04T02:54:38.231Z,61.50
2023-03-04T02:57:09.069Z,64.41
2023-03-04T02:59:37.128Z,63.75
2023-03-04T03:02:03.837Z,65.70
2023-03-04T03:04:30.374Z,65.36
2023-03-04T03:06:56.800Z,66.88
2023-03-04T03:09:23.259Z,64.69
2023-03-04T03:11:49.839Z,66.22
2023-03-04T03:14:16.743Z,64.94
2023-03-04T03:16:43.422Z,64.29
2023-03-04T03:19:10.001Z,62.08
2023-03-04T03:21:36.474Z,67.68
2023-03-04T03:24:02.947Z,65.20
2023-03-04T03:26:29.418Z,65.71
2023-03-04T03:28:55.865Z,67.61
2023-03-04T03:31:22.356Z,68.62
2023-03-04T03:33:48.865Z,68.22
2023-03-04T03:36:15.319Z,66.30
2023-03-04T03:38:41.790Z,68.52
2023-03-04T03:41:08.329Z,69.45
2023-03-04T03:43:34.737Z,69.74
2023-03-04T03:46:01.198Z,69.44
2023-03-04T03:48:27.651Z,68.78
2023-03-04T03:50:54.072Z,69.17
2023-03-04T03:53:20.583Z,69.24
2023-03-04T03:55:46.975Z,69.46
2023-03-04T03:58:14.288Z,70.94
2023-03-04T04:00:40.717Z,70.84
2023-03-04T04:03:07.351Z,71.01
2023-03-04T04:05:33.812Z,70.68
2023-03-04T04:08:00.223Z,71.95
2023-03-04T04:10:26.666Z,71.54
2023-03-04T04:12:53.154Z,71.51
2023-03-04T04:15:19.667Z,72.64
2023-03-04T04:17:46.089Z,70.21
2023-03-04T04:20:12.623Z,73.22
2023-03-04T04:22:39.108Z,72.03
2023-03-04T04:25:06.205Z,71.38
2023-03-04T04:27:32.633Z,72.26
2023-03-04T04:29:59.050Z,70.61
2023-03-04T04:32:25.510Z,72.78
2023-03-04T04:34:51.939Z,69.79
2023-03-04T04:37:18.369Z,71.16
2023-03-04T04:39:44.839Z,69.68
2023-03-04T04:42:11.876Z,71.18
2023-03-04T04:44:38.902Z,70.42
2023-03-04T04:47:07.083Z,68.84
2023-03-04T04:49:33.646Z,70.74
2023-03-04T04:52:00.497Z,69.37
2023-03-04T04:54:27.067Z,72.08
2023-03-04T04:56:53.935Z,70.53
2023-03-04T04:59:20.522Z,71.92
2023-03-04T05:01:47.243Z,71.73
2023-03-04T05:04:13.969Z,73.02
2023-03-04T05:06:40.604Z,74.59
2023-03-04T05:09:07.246Z,74.96
2023-03-04T05:11:34.403Z,73.65
2023-03-04T05:14:00.900Z,72.61
2023-03-04T05:16:27.704Z,74.08
2023-03-04T05:18:54.303Z,71.74
2023-03-04T05:21:20.778Z,69.85
2023-03-04T05:23:47.289Z,72.07
2023-03-04T05:26:17.184Z,72.38
2023-03-04T05:28:44.313Z,70.80
2023-03-04T05:31:10.974Z,74.43
2023-03-04T05:33:38.187Z,73.56
2023-03-04T05:36:05.980Z,74.91
2023-03-04T05:38:33.033Z,73.94
2023-03-04T05:41:02.280Z,73.69
2023-03-04T05:43:29.063Z,70.83
2023-03-04T05:45:55.776Z,73.19
2023-03-04T05:48:22.726Z,73.36
2023-03-04T05:50:57.251Z,72.88
2023-03-04T05:53:24.132Z,71.43
2023-03-04T05:55:50.740Z,74.00
2023-03-04T05:58:18.163Z,75.69
2023-03-04T06:00:45.221Z,74.12
2023-03-04T06:03:20.374Z,73.61
2023-03-04T06:05:47.030Z,77.58
2023-03-04T06:08:14.308Z,73.91
2023-03-04T06:10:41.756Z,74.30
2023-03-04T06:13:08.628Z,76.45
2023-03-04T06:15:35.090Z,76.36
2023-03-04T06:18:01.644Z,77.87
2023-03-04T06:20:28.163Z,80.72
2023-03-04T06:22:54.771Z,77.37
2023-03-04T06:25:21.540Z,79.39
2023-03-04T06:27:49.796Z,77.86
2023-03-04T06:30:17.657Z,76.67
2023-03-04T06:32:44.393Z,78.48
2023-03-04T06:35:12.624Z,79.49
2023-03-04T06:37:39.433Z,78.66
2023-03-04T06:40:08.139Z,79.89
2023-03-04T06:42:35.613Z,77.32
2023-03-04T06:45:02.875Z,80.15
2023-03-04T06:47:29.527Z,75.99
2023-03-04T06:49:56.145Z,77.25
2023-03-04T06:52:22.636Z,78.70
2023-03-04T06:54:49.101Z,76.45
2023-03-04T06:57:15.665Z,77.17
2023-03-04T06:59:42.110Z,79.20
2023-03-04T07:02:12.451Z,78.91
2023-03-04T07:04:39.659Z,79.19
2023-03-04T07:07:16.771Z,78.54
2023-03-04T07:09:43.214Z,77.65
2023-03-04T07:12:09.647Z,79.94
2023-03-04T07:14:36.058Z,79.88
2023-03-04T07:17:02.568Z,76.97
2023-03-04T07:19:28.969Z,77.71
2023-03-04T07:21:55.414Z,78.86
2023-03-04T07:24:21.825Z,78.71
2023-03-04T07:26:48.235Z,81.20
2023-03-04T07:29:14.750Z,79.96
2023-03-04T07:31:41.264Z,79.44
2023-03-04T07:34:11.516Z,78.98
2023-03-04T07:36:38.129Z,78.94
2023-03-04T07:39:05.673Z,78.03
2023-03-04T07:41:32.453Z,80.42
2023-03-04T07:43:59.107Z,79.69
2023-03-04T07:46:25.841Z,79.78
2023-03-04T07:48:52.995Z,81.07
2023-03-04T07:51:21.717Z,78.44
2023-03-04T07:53:51.145Z,78.88
2023-03-04T07:56:23.097Z,77.23
2023-03-04T07:58:52.353Z,80.22
2023-03-04T08:01:30.834Z,80.19
2023-03-04T08:03:58.302Z,80.06
2023-03-04T08:06:26.804Z,79.95
2023-03-04T08:09:02.215Z,80.62
2023-03-04T08:11:30.311Z,80.74
2023-03-04T08:13:58.741Z,79.47
2023-03-04T08:16:26.463Z,79.95
2023-03-04T08:18:56.967Z,79.62
2023-03-04T08:21:25.136Z,80.91
2023-03-04T08:23:52.227Z,79.03
2023-03-04T08:26:23.731Z,77.65
2023-03-04T08:28:50.844Z,82.86
2023-03-04T08:31:18.465Z,81.88
2023-03-04T08:33:45.673Z,80.81
2023-03-04T08:36:13.807Z,82.78
2023-03-04T08:38:40.256Z,82.81
2023-03-04T08:41:06.968Z,81.97
2023-03-04T08:43:34.680Z,80.43
2023-03-04T08:46:01.252Z,80.54
2023-03-04T08:48:27.809Z,80.98
2023-03-04T08:50:54.662Z,79.18
2023-03-04T08:53:21.988Z,78.29
2023-03-04T08:55:48.611Z,77.52
2023-03-04T08:58:15.407Z,75.84
2023-03-04T09:00:48.148Z,74.40
2023-03-04T09:03:15.799Z,74.58
2023-03-04T09:05:42.292Z,70.15
2023-03-04T09:08:08.721Z,70.95
2023-03-04T09:10:35.186Z,71.88
2023-03-04T09:13:01.886Z,68.95
2023-03-04T09:15:28.712Z,71.75
2023-03-04T09:17:55.360Z,70.41
2023-03-04T09:20:23.157Z,69.53
2023-03-04T09:22:50.157Z,75.34
2023-03-04T09:25:16.645Z,75.97
2023-03-04T09:27:43.426Z,76.85
2023-03-04T09:30:11.058Z,78.51
2023-03-04T09:32:37.700Z,75.79
2023-03-04T09:35:04.746Z,75.57
2023-03-04T09:37:31.276Z,78.14
2023-03-04T09:39:57.735Z,75.70
2023-03-04T09:42:33.501Z,73.88
2023-03-04T09:45:00.543Z,73.24
2023-03-04T09:47:27.323Z,77.73
2023-03-04T09:50:01.100Z,77.48
2023-03-04T09:52:27.444Z,77.99
2023-03-04T09:55:25.345Z,75.97
2023-03-04T09:58:14.403Z,75.18
2023-03-04T10:00:51.909Z,77.00
2023-03-04T10:03:24.305Z,73.67
2023-03-04T10:05:57.923Z,76.24
2023-03-04T10:08:49.295Z,77.38
2023-03-04T10:11:24.738Z,78.41
2023-03-04T10:14:10.902Z,80.89
2023-03-04T10:16:56.208Z,76.88
2023-03-04T10:19:26.509Z,76.60
2023-03-04T10:21:52.985Z,76.10
2023-03-04T10:24:22.638Z,77.10
2023-03-04T10:26:54.125Z,79.66
2023-03-04T10:29:22.924Z,77.37
2023-03-04T10:31:49.725Z,74.99
2023-03-04T10:34:17.752Z,75.72
2023-03-04T10:36:53.438Z,74.86
2023-03-04T10:39:26.240Z,73.89
2023-03-04T10:41:57.507Z,76.88
2023-03-04T10:44:25.131Z,78.24
2023-03-04T10:46:54.728Z,76.56
2023-03-04T10:49:21.750Z,75.53
2023-03-04T10:52:03.165Z,76.03
2023-03-04T10:54:48.590Z,72.81
2023-03-04T10:57:18.855Z,73.46
2023-03-04T10:59:51.536Z,76.81
2023-03-04T11:02:29.334Z,75.41
2023-03-04T11:05:07.969Z,75.38
2023-03-04T11:07:54.493Z,72.49
2023-03-04T11:10:36.104Z,73.49
2023-03-04T11:13:02.483Z,73.34
2023-03-04T11:15:31.268Z,71.56
2023-03-04T11:18:03.009Z,70.35
2023-03-04T11:20:40.442Z,70.07
2023-03-04T11:23:12.699Z,67.74
2023-03-04T11:25:43.975Z,69.58
2023-03-04T11:28:27.532Z,70.01
2023-03-04T11:31:01.112Z,68.05
2023-03-04T11:33:42.253Z,66.02
2023-03-04T11:36:25.385Z,70.71
2023-03-04T11:38:52.009Z,70.56
2023-03-04T11:41:31.989Z,72.26
2023-03-04T11:44:00.317Z,72.82
2023-03-04T11:46:44.957Z,72.23
2023-03-04T11:49:30.030Z,72.20
2023-03-04T11:52:26.537Z,72.07
2023-03-04T11:54:58.893Z,71.67
2023-03-04T11:57:47.949Z,67.69
2023-03-04T12:00:29.675Z,68.11
2023-03-04T12:03:01.801Z,65.49
2023-03-04T12:05:36.366Z,67.89
2023-03-04T12:08:12.732Z,65.75
2023-03-04T12:10:59.443Z,65.52
2023-03-04T12:13:48.134Z,65.24
2023-03-04T12:16:52.312Z,60.90
2023-03-04T12:19:24.684Z,61.16
2023-03-04T12:22:08.074Z,61.98
2023-03-04T12:24:55.490Z,60.20
2023-03-04T12:27:38.012Z,58.70
2023-03-04T12:30:25.770Z,57.22
2023-03-04T12:33:04.490Z,55.79
2023-03-04T12:35:36.712Z,54.85
2023-03-04T12:38:27.411Z,55.76
2023-03-04T12:41:21.269Z,54.32
2023-03-04T12:44:08.735Z,54.93
2023-03-04T12:47:16.392Z,55.34
2023-03-04T12:50:21.289Z,53.80
2023-03-04T12:53:10.868Z,53.27
2023-03-04T12:55:42.370Z,54.61
2023-03-04T12:58:21.014Z,56.10
2023-03-04T13:01:32.472Z,54.81
2023-03-04T13:04:23.794Z,55.49
2023-03-04T13:07:08.611Z,56.71
2023-03-04T13:09:48.568Z,55.47
2023-03-04T13:12:22.228Z,54.66
2023-03-04T13:15:07.354Z,54.90
2023-03-04T13:17:49.303Z,57.08
2023-03-04T13:20:39.712Z,55.23
2023-03-04T13:23:08.860Z,55.67
2023-03-04T13:26:07.766Z,55.81
2023-03-04T13:28:37.684Z,57.41
2023-03-04T13:31:10.079Z,56.47
2023-03-04T13:33:36.452Z,59.66
2023-03-04T13:36:06.179Z,58.23
2023-03-04T13:38:36.363Z,60.66
2023-03-04T13:41:20.906Z,57.17
2023-03-04T13:43:54.286Z,59.56
2023-03-04T13:46:20.884Z,57.59
2023-03-04T13:48:50.557Z,56.80
2023-03-04T13:51:30.336Z,55.90
2023-03-04T13:54:00.187Z,57.10
2023-03-04T13:56:37.454Z,56.19
2023-03-04T13:59:06.922Z,59.91
2023-03-04T14:01:40.840Z,64.75
2023-03-04T14:04:29.134Z,68.25
2023-03-04T14:06:58.421Z,68.85
2023-03-04T14:09:31.032Z,69.27
2023-03-04T14:12:02.489Z,65.08
2023-03-04T14:14:34.402Z,64.44
2023-03-04T14:17:05.678Z,64.90
2023-03-04T14:19:43.021Z,62.58
2023-03-04T14:22:32.048Z,61.18
2023-03-04T14:25:23.628Z,60.20
2023-03-04T14:27:50.866Z,59.76
2023-03-04T14:30:40.932Z,59.58
2023-03-04T14:33:14.087Z,60.40
2023-03-04T14:35:50.159Z,58.54
2023-03-04T14:38:38.017Z,59.42
2023-03-04T14:41:10.193Z,60.62
2023-03-04T14:43:46.986Z,61.67
2023-03-04T14:46:15.965Z,62.68
2023-03-04T14:48:49.140Z,63.34
2023-03-04T14:51:46.898Z,65.59
2023-03-04T14:54:26.658Z,64.68
2023-03-04T14:56:53.045Z,61.26
2023-03-04T14:59:32.090Z,61.41
2023-03-04T15:02:31.063Z,61.43
2023-03-04T15:05:00.104Z,62.17
2023-03-04T15:07:32.612Z,59.84
2023-03-04T15:10:00.224Z,60.76
2023-03-04T15:12:30.412Z,59.17
2023-03-04T15:15:02.168Z,59.93
2023-03-04T15:17:42.359Z,61.60
2023-03-04T15:20:08.894Z,60.34
2023-03-04T15:22:56.434Z,62.10
2023-03-04T15:25:23.764Z,61.91
2023-03-04T15:27:50.948Z,61.44
2023-03-04T15:30:21.433Z,62.76
2023-03-04T15:32:48.237Z,64.67
2023-03-04T15:35:16.540Z,64.28
2023-03-04T15:37:44.223Z,63.23
2023-03-04T15:40:42.946Z,60.56
2023-03-04T15:43:16.259Z,62.99
2023-03-04T15:45:43.575Z,62.54
2023-03-04T15:48:12.724Z,61.75
2023-03-04T15:50:45.914Z,62.18
2023-03-04T15:53:19.635Z,63.82
2023-03-04T15:55:46.826Z,62.35
2023-03-04T15:58:14.789Z,64.09
2023-03-04T16:00:41.230Z,60.28
2023-03-04T16:03:14.039Z,59.83
2023-03-04T16:05:41.019Z,62.64
2023-03-04T16:08:13.074Z,58.22
2023-03-04T16:10:39.649Z,56.77
2023-03-04T16:13:06.076Z,57.62
2023-03-04T16:15:32.566Z,58.57
2023-03-04T16:17:59.648Z,56.11
2023-03-04T16:20:29.079Z,57.07
2023-03-04T16:22:58.549Z,58.53
2023-03-04T16:25:25.735Z,55.48
2023-03-04T16:27:55.982Z,57.40
2023-03-04T16:30:27.166Z,56.24
2023-03-04T16:32:54.202Z,58.34
2023-03-04T16:35:21.493Z,56.87
2023-03-04T16:37:48.108Z,56.25
2023-03-04T16:40:16.853Z,56.64
2023-03-04T16:42:43.402Z,57.50
2023-03-04T16:45:18.674Z,58.45
2023-03-04T16:47:45.118Z,59.29
2023-03-04T16:50:26.989Z,57.18
2023-03-04T16:52:54.401Z,57.88
2023-03-04T16:55:26.380Z,57.29
2023-03-04T16:57:54.159Z,55.91
2023-03-04T17:00:22.521Z,55.66
2023-03-04T17:03:00.827Z,53.90
2023-03-04T17:05:30.414Z,54.99
2023-03-04T17:07:57.183Z,54.02
2023-03-04T17:10:24.919Z,56.71
2023-03-04T17:12:51.963Z,56.75
2023-03-04T17:15:18.550Z,55.40
2023-03-04T17:17:45.032Z,55.44
2023-03-04T17:20:14.632Z,54.74
2023-03-04T17:22:41.461Z,55.46
2023-03-04T17:25:08.899Z,54.43
2023-03-04T17:27:35.817Z,56.55
2023-03-04T17:30:03.349Z,54.13
2023-03-04T17:32:32.438Z,58.78
2023-03-04T17:34:59.629Z,57.34
2023-03-04T17:37:26.980Z,56.65
2023-03-04T17:39:53.453Z,57.39
2023-03-04T17:42:20.499Z,59.14
2023-03-04T17:44:47.024Z,59.54
2023-03-04T17:47:14.283Z,60.77
2023-03-04T17:49:40.788Z,58.29
2023-03-04T17:52:07.386Z,60.37
2023-03-04T17:54:34.722Z,61.69
2023-03-04T17:57:01.134Z,61.56
2023-03-04T17:59:27.601Z,60.96
2023-03-04T18:01:54.425Z,61.95
2023-03-04T18:04:21.631Z,59.43
2023-03-04T18:06:48.093Z,63.22
2023-03-04T18:09:14.652Z,61.91
2023-03-04T18:11:42.218Z,59.12
2023-03-04T18:14:09.565Z,57.93
2023-03-04T18:16:36.003Z,58.99
2023-03-04T18:19:02.887Z,56.74
2023-03-04T18:21:30.413Z,55.60
2023-03-04T18:23:57.791Z,55.72
2023-03-04T18:26:25.245Z,55.73
2023-03-04T18:28:53.369Z,55.14
2023-03-04T18:31:21.482Z,54.07
2023-03-04T18:33:48.167Z,54.95
2023-03-04T18:36:15.131Z,54.22
2023-03-04T18:38:41.932Z,54.60
2023-03-04T18:41:11.488Z,53.40
2023-03-04T18:43:38.244Z,52.86
2023-03-04T18:46:10.790Z,51.31
2023-03-04T18:48:45.977Z,51.76
2023-03-04T18:51:12.769Z,50.43
2023-03-04T18:53:39.231Z,51.14
2023-03-04T18:56:31.405Z,51.47
2023-03-04T18:58:58.548Z,52.62
2023-03-04T19:01:26.006Z,52.51
2023-03-04T19:03:54.320Z,51.80
2023-03-04T19:06:20.914Z,53.13
2023-03-04T19:08:47.394Z,54.14
2023-03-04T19:11:14.648Z,53.96
2023-03-04T19:13:41.056Z,55.47
2023-03-04T19:16:07.765Z,55.33
2023-03-04T19:18:34.250Z,56.82
2023-03-04T19:21:00.835Z,56.31
2023-03-04T19:23:27.461Z,55.39
2023-03-04T19:25:53.899Z,56.94
2023-03-04T19:28:20.314Z,57.15
2023-03-04T19:30:46.780Z,56.57
2023-03-04T19:33:13.232Z,53.75
2023-03-04T19:36:16.734Z,52.10
2023-03-04T19:38:43.804Z,52.48
2023-03-04T19:41:16.307Z,50.96
2023-03-04T19:43:42.977Z,53.60
2023-03-04T19:46:37.370Z,53.60
2023-03-04T19:49:22.143Z,53.20
2023-03-04T19:51:48.627Z,52.44
2023-03-04T19:54:15.095Z,53.19
2023-03-04T19:56:41.613Z,54.96
2023-03-04T19:59:36.056Z,55.26
2023-03-04T20:02:03.001Z,56.95
2023-03-04T20:04:29.491Z,58.30
2023-03-04T20:06:55.934Z,56.71
2023-03-04T20:09:22.727Z,59.09
2023-03-04T20:11:59.106Z,58.54
2023-03-04T20:14:36.576Z,58.59
2023-03-04T20:17:06.769Z,61.18
2023-03-04T20:19:34.861Z,59.22
2023-03-04T20:22:02.438Z,59.92
2023-03-04T20:24:34.701Z,57.72
2023-03-04T20:27:01.265Z,57.41
2023-03-04T20:29:28.860Z,56.38
2023-03-04T20:31:55.524Z,58.02
2023-03-04T20:34:22.700Z,57.74
2023-03-04T20:36:49.105Z,57.02
2023-03-04T20:39:28.104Z,57.53
2023-03-04T20:41:57.813Z,56.54
2023-03-04T20:44:25.198Z,55.18
2023-03-04T20:46:52.047Z,54.95
2023-03-04T20:49:24.722Z,53.77
2023-03-04T20:52:06.432Z,53.92
2023-03-04T20:54:34.505Z,51.87
2023-03-04T20:57:01.222Z,50.96
2023-03-04T20:59:27.702Z,51.21
2023-03-04T21:01:54.631Z,50.44
2023-03-04T21:04:21.288Z,49.68
2023-03-04T21:06:48.345Z,49.28
2023-03-04T21:09:17.387Z,49.12
2023-03-04T21:11:44.332Z,48.58
2023-03-04T21:14:16.570Z,48.52
2023-03-04T21:16:43.355Z,48.50
2023-03-04T21:19:15.596Z,47.79
2023-03-04T21:21:42.376Z,48.19
2023-03-04T21:24:13.781Z,48.96
2023-03-04T21:26:40.314Z,47.83
2023-03-04T21:29:06.889Z,48.30
2023-03-04T21:31:36.766Z,48.32
2023-03-04T21:34:03.242Z,47.59
2023-03-04T21:36:29.667Z,48.06
2023-03-04T21:38:56.181Z,48.51
2023-03-04T21:41:24.099Z,48.17
2023-03-04T21:43:51.214Z,48.67
2023-03-04T21:46:19.018Z,51.30
2023-03-04T21:48:47.574Z,51.35
2023-03-04T21:51:15.472Z,53.12
2023-03-04T21:53:43.373Z,54.56
2023-03-04T21:56:11.828Z,54.53
2023-03-04T21:58:42.030Z,57.45
2023-03-04T22:01:10.304Z,58.85
2023-03-04T22:03:36.806Z,58.90
2023-03-04T22:06:08.577Z,57.79
2023-03-04T22:08:35.795Z,58.67
2023-03-04T22:11:04.419Z,57.40
2023-03-04T22:13:30.919Z,57.38
2023-03-04T22:15:58.188Z,56.83
2023-03-04T22:18:24.878Z,57.93
2023-03-04T22:20:53.459Z,58.25
2023-03-04T22:23:23.296Z,58.87
2023-03-04T22:25:49.773Z,57.56
2023-03-04T22:28:16.164Z,59.59
2023-03-04T22:30:42.578Z,58.76
2023-03-04T22:33:14.853Z,58.99
2023-03-04T22:35:41.450Z,58.98
2023-03-04T22:38:36.099Z,61.01
2023-03-04T22:41:02.694Z,60.88
2023-03-04T22:43:29.949Z,63.63
2023-03-04T22:45:59.966Z,64.88
2023-03-04T22:48:26.924Z,60.56
2023-03-04T22:50:53.362Z,63.17
2023-03-04T22:53:19.824Z,65.09
2023-03-04T22:55:46.287Z,64.28
2023-03-04T22:58:35.968Z,66.95
2023-03-04T23:01:30.384Z,68.96
2023-03-04T23:03:56.844Z,66.56
2023-03-04T23:06:25.682Z,67.97
2023-03-04T23:08:52.612Z,66.49
2023-03-04T23:11:22.909Z,71.51
2023-03-04T23:13:50.047Z,69.11
2023-03-04T23:16:37.192Z,69.46
2023-03-04T23:19:05.457Z,70.15
2023-03-04T23:21:35.075Z,69.08
2023-03-04T23:24:02.551Z,69.09
2023-03-04T23:26:32.343Z,68.30
2023-03-04T23:29:01.475Z,71.68
2023-03-04T23:31:29.639Z,68.65
2023-03-04T23:34:06.888Z,68.83
2023-03-04T23:36:37.091Z,70.26
2023-03-04T23:39:05.377Z,70.08
2023-03-04T23:41:32.811Z,71.71
2023-03-04T23:43:59.904Z,68.88
2023-03-04T23:46:27.482Z,69.27
2023-03-04T23:48:54.887Z,73.76
2023-03-04T23:51:24.507Z,71.86
2023-03-04T23:53:51.797Z,71.15
2023-03-04T23:56:23.749Z,73.30
2023-03-04T23:58:50.668Z,71.83
